sensor_id;sensor_type;location;lat;lon;timestamp;pressure;altitude;pressure_sealevel;temperature;humidity
23307;BME280;11822;52.470;10.688;2022-07-29T00:01:45;101190.47;;;17.43;43.06
23307;BME280;11822;52.470;10.688;2022-07-29T00:04:11;101186.06;;;17.39;42.90
23307;BME280;11822;52.470;10.688;2022-07-29T00:06:36;101187.28;;;17.41;42.71
23307;BME280;11822;52.470;10.688;2022-07-29T00:09:02;101188.44;;;17.40;42.97
23307;BME280;11822;52.470;10.688;2022-07-29T00:11:27;101184.91;;;17.40;43.00
23307;BME280;11822;52.470;10.688;2022-07-29T00:13:53;101171.75;;;17.33;43.37
23307;BME280;11822;52.470;10.688;2022-07-29T00:16:18;101174.16;;;17.35;43.27
23307;BME280;11822;52.470;10.688;2022-07-29T00:18:43;101170.16;;;17.32;43.38
23307;BME280;11822;52.470;10.688;2022-07-29T00:21:09;101160.66;;;17.30;43.36
23307;BME280;11822;52.470;10.688;2022-07-29T00:23:34;101157.06;;;17.29;43.44
23307;BME280;11822;52.470;10.688;2022-07-29T00:26:00;101150.75;;;17.28;43.55
23307;BME280;11822;52.470;10.688;2022-07-29T00:28:26;101148.78;;;17.29;43.58
23307;BME280;11822;52.470;10.688;2022-07-29T00:30:51;101149.94;;;17.28;43.44
23307;BME280;11822;52.470;10.688;2022-07-29T00:33:16;101151.53;;;17.29;43.35
23307;BME280;11822;52.470;10.688;2022-07-29T00:35:42;101145.97;;;17.25;43.62
23307;BME280;11822;52.470;10.688;2022-07-29T00:38:14;101150.69;;;17.25;43.76
23307;BME280;11822;52.470;10.688;2022-07-29T00:40:40;101143.56;;;17.24;43.76
23307;BME280;11822;52.470;10.688;2022-07-29T00:43:06;101145.16;;;17.25;43.71
23307;BME280;11822;52.470;10.688;2022-07-29T00:45:32;101143.22;;;17.25;44.06
23307;BME280;11822;52.470;10.688;2022-07-29T00:47:58;101138.56;;;17.30;43.77
23307;BME280;11822;52.470;10.688;2022-07-29T00:50:23;101140.50;;;17.29;44.02
23307;BME280;11822;52.470;10.688;2022-07-29T00:52:50;101133.03;;;17.30;44.03
23307;BME280;11822;52.470;10.688;2022-07-29T00:55:16;101138.47;;;17.26;44.15
23307;BME280;11822;52.470;10.688;2022-07-29T00:57:43;101133.38;;;17.28;44.11
23307;BME280;11822;52.470;10.688;2022-07-29T01:00:14;101131.34;;;17.25;44.01
23307;BME280;11822;52.470;10.688;2022-07-29T01:02:40;101136.09;;;17.24;44.41
23307;BME280;11822;52.470;10.688;2022-07-29T01:05:06;101133.28;;;17.21;44.52
23307;BME280;11822;52.470;10.688;2022-07-29T01:07:34;101133.63;;;17.19;44.27
23307;BME280;11822;52.470;10.688;2022-07-29T01:10:03;101125.72;;;17.18;44.34
23307;BME280;11822;52.470;10.688;2022-07-29T01:12:30;101130.13;;;17.22;44.30
23307;BME280;11822;52.470;10.688;2022-07-29T01:14:58;101122.97;;;17.18;44.57
23307;BME280;11822;52.470;10.688;2022-07-29T01:23:34;101117.19;;;17.26;44.60
23307;BME280;11822;52.470;10.688;2022-07-29T01:31:25;101102.06;;;17.17;44.86
23307;BME280;11822;52.470;10.688;2022-07-29T01:33:58;101098.13;;;17.18;44.92
23307;BME280;11822;52.470;10.688;2022-07-29T01:36:37;101102.47;;;17.19;44.95
23307;BME280;11822;52.470;10.688;2022-07-29T01:41:34;101098.03;;;17.14;45.29
23307;BME280;11822;52.470;10.688;2022-07-29T01:44:18;101096.84;;;17.11;45.28
23307;BME280;11822;52.470;10.688;2022-07-29T01:46:52;101096.41;;;17.09;45.34
23307;BME280;11822;52.470;10.688;2022-07-29T01:49:20;101099.00;;;17.22;44.82
23307;BME280;11822;52.470;10.688;2022-07-29T01:51:50;101093.56;;;17.06;45.51
23307;BME280;11822;52.470;10.688;2022-07-29T01:56:48;101093.50;;;17.02;45.65
23307;BME280;11822;52.470;10.688;2022-07-29T01:59:17;101079.72;;;17.02;45.62
23307;BME280;11822;52.470;10.688;2022-07-29T02:11:40;101083.09;;;16.95;45.78
23307;BME280;11822;52.470;10.688;2022-07-29T02:14:10;101078.28;;;16.92;46.17
23307;BME280;11822;52.470;10.688;2022-07-29T02:16:39;101076.69;;;16.91;46.32
23307;BME280;11822;52.470;10.688;2022-07-29T02:19:06;101072.00;;;16.92;46.19
23307;BME280;11822;52.470;10.688;2022-07-29T02:21:35;101073.50;;;16.89;46.31
23307;BME280;11822;52.470;10.688;2022-07-29T02:24:01;101076.69;;;16.91;46.23
23307;BME280;11822;52.470;10.688;2022-07-29T02:26:29;101071.19;;;16.91;46.67
23307;BME280;11822;52.470;10.688;2022-07-29T02:28:57;101074.38;;;16.93;46.56
23307;BME280;11822;52.470;10.688;2022-07-29T02:31:31;101070.56;;;16.98;46.30
23307;BME280;11822;52.470;10.688;2022-07-29T02:33:58;101074.81;;;16.95;46.65
23307;BME280;11822;52.470;10.688;2022-07-29T02:36:25;101082.75;;;16.97;46.32
23307;BME280;11822;52.470;10.688;2022-07-29T02:38:51;101078.38;;;16.96;46.64
23307;BME280;11822;52.470;10.688;2022-07-29T02:43:45;101071.00;;;17.00;46.79
23307;BME280;11822;52.470;10.688;2022-07-29T02:46:27;101076.09;;;16.98;46.85
23307;BME280;11822;52.470;10.688;2022-07-29T02:48:58;101071.72;;;16.97;46.91
23307;BME280;11822;52.470;10.688;2022-07-29T02:51:41;101074.63;;;17.04;46.64
23307;BME280;11822;52.470;10.688;2022-07-29T02:54:08;101069.84;;;17.01;46.64
23307;BME280;11822;52.470;10.688;2022-07-29T02:56:36;101079.28;;;17.00;46.77
23307;BME280;11822;52.470;10.688;2022-07-29T02:59:07;101074.09;;;16.98;47.19
23307;BME280;11822;52.470;10.688;2022-07-29T03:01:34;101076.09;;;16.98;47.17
23307;BME280;11822;52.470;10.688;2022-07-29T03:04:03;101070.91;;;16.96;47.33
23307;BME280;11822;52.470;10.688;2022-07-29T03:06:30;101069.75;;;16.97;47.25
23307;BME280;11822;52.470;10.688;2022-07-29T03:08:58;101057.13;;;16.96;47.35
23307;BME280;11822;52.470;10.688;2022-07-29T03:11:25;101064.94;;;16.94;47.30
23307;BME280;11822;52.470;10.688;2022-07-29T03:13:51;101072.03;;;16.95;47.49
23307;BME280;11822;52.470;10.688;2022-07-29T03:16:19;101070.44;;;16.94;47.62
23307;BME280;11822;52.470;10.688;2022-07-29T03:18:45;101079.09;;;16.93;47.36
23307;BME280;11822;52.470;10.688;2022-07-29T03:21:11;101073.59;;;16.93;47.61
23307;BME280;11822;52.470;10.688;2022-07-29T03:23:36;101072.34;;;16.90;47.81
23307;BME280;11822;52.470;10.688;2022-07-29T03:26:02;101073.06;;;16.87;47.81
23307;BME280;11822;52.470;10.688;2022-07-29T03:28:28;101062.84;;;16.88;47.99
23307;BME280;11822;52.470;10.688;2022-07-29T03:30:54;101059.38;;;16.91;47.84
23307;BME280;11822;52.470;10.688;2022-07-29T03:33:19;101059.66;;;16.86;48.01
23307;BME280;11822;52.470;10.688;2022-07-29T03:35:45;101064.78;;;16.87;48.18
23307;BME280;11822;52.470;10.688;2022-07-29T03:38:10;101055.66;;;16.83;48.18
23307;BME280;11822;52.470;10.688;2022-07-29T03:40:49;101054.44;;;16.80;48.36
23307;BME280;11822;52.470;10.688;2022-07-29T03:43:17;101055.22;;;16.81;48.32
23307;BME280;11822;52.470;10.688;2022-07-29T03:45:47;101052.41;;;16.77;48.54
23307;BME280;11822;52.470;10.688;2022-07-29T03:48:14;101040.16;;;16.75;48.72
23307;BME280;11822;52.470;10.688;2022-07-29T03:50:41;101040.94;;;16.75;48.63
23307;BME280;11822;52.470;10.688;2022-07-29T03:53:07;101037.41;;;16.75;48.74
23307;BME280;11822;52.470;10.688;2022-07-29T03:55:37;101033.81;;;16.74;48.91
23307;BME280;11822;52.470;10.688;2022-07-29T03:58:05;101034.56;;;16.71;49.00
23307;BME280;11822;52.470;10.688;2022-07-29T04:00:33;101036.59;;;16.74;48.94
23307;BME280;11822;52.470;10.688;2022-07-29T04:02:59;101040.50;;;16.73;48.93
23307;BME280;11822;52.470;10.688;2022-07-29T04:05:25;101029.47;;;16.73;48.97
23307;BME280;11822;52.470;10.688;2022-07-29T04:07:50;101042.53;;;16.76;49.09
23307;BME280;11822;52.470;10.688;2022-07-29T04:10:16;101048.78;;;16.73;49.15
23307;BME280;11822;52.470;10.688;2022-07-29T04:12:42;101044.94;;;16.78;49.30
23307;BME280;11822;52.470;10.688;2022-07-29T04:15:08;101044.94;;;16.78;49.13
23307;BME280;11822;52.470;10.688;2022-07-29T04:17:33;101052.09;;;16.82;49.30
23307;BME280;11822;52.470;10.688;2022-07-29T04:19:59;101054.88;;;16.82;49.23
23307;BME280;11822;52.470;10.688;2022-07-29T04:22:24;101050.56;;;16.85;49.47
23307;BME280;11822;52.470;10.688;2022-07-29T04:24:50;101054.91;;;16.86;49.54
23307;BME280;11822;52.470;10.688;2022-07-29T04:27:15;101047.47;;;16.87;49.51
23307;BME280;11822;52.470;10.688;2022-07-29T04:29:40;101056.09;;;16.85;49.51
23307;BME280;11822;52.470;10.688;2022-07-29T04:32:06;101052.53;;;16.84;49.48
23307;BME280;11822;52.470;10.688;2022-07-29T04:34:31;101057.69;;;16.86;49.41
23307;BME280;11822;52.470;10.688;2022-07-29T04:36:57;101055.72;;;16.87;49.89
23307;BME280;11822;52.470;10.688;2022-07-29T04:39:22;101049.06;;;16.88;49.86
23307;BME280;11822;52.470;10.688;2022-07-29T04:41:48;101049.09;;;16.91;49.84
23307;BME280;11822;52.470;10.688;2022-07-29T04:44:14;101051.09;;;16.91;49.71
23307;BME280;11822;52.470;10.688;2022-07-29T04:46:39;101056.22;;;16.92;50.01
23307;BME280;11822;52.470;10.688;2022-07-29T04:49:05;101053.53;;;16.96;49.66
23307;BME280;11822;52.470;10.688;2022-07-29T04:51:30;101046.88;;;16.97;49.65
23307;BME280;11822;52.470;10.688;2022-07-29T04:53:56;101050.50;;;17.01;49.91
23307;BME280;11822;52.470;10.688;2022-07-29T04:56:21;101047.38;;;17.03;49.77
23307;BME280;11822;52.470;10.688;2022-07-29T04:58:47;101064.06;;;17.10;49.81
23307;BME280;11822;52.470;10.688;2022-07-29T05:01:12;101061.72;;;17.12;50.05
23307;BME280;11822;52.470;10.688;2022-07-29T05:03:39;101055.91;;;17.17;49.97
23307;BME280;11822;52.470;10.688;2022-07-29T05:06:04;101051.69;;;17.23;49.80
23307;BME280;11822;52.470;10.688;2022-07-29T05:08:30;101050.19;;;17.30;49.55
23307;BME280;11822;52.470;10.688;2022-07-29T05:10:55;101052.28;;;17.36;49.67
23307;BME280;11822;52.470;10.688;2022-07-29T05:13:20;101047.28;;;17.46;49.74
23307;BME280;11822;52.470;10.688;2022-07-29T05:15:46;101056.09;;;17.51;49.46
23307;BME280;11822;52.470;10.688;2022-07-29T05:18:11;101052.63;;;17.58;49.73
23307;BME280;11822;52.470;10.688;2022-07-29T05:20:36;101059.16;;;17.73;49.61
23307;BME280;11822;52.470;10.688;2022-07-29T05:23:02;101064.44;;;17.82;49.23
23307;BME280;11822;52.470;10.688;2022-07-29T05:25:29;101056.56;;;17.84;49.34
23307;BME280;11822;52.470;10.688;2022-07-29T05:27:55;101061.78;;;17.89;49.16
23307;BME280;11822;52.470;10.688;2022-07-29T05:30:21;101065.38;;;17.93;49.20
23307;BME280;11822;52.470;10.688;2022-07-29T05:32:47;101066.25;;;17.97;48.82
23307;BME280;11822;52.470;10.688;2022-07-29T05:35:13;101065.06;;;17.98;49.18
23307;BME280;11822;52.470;10.688;2022-07-29T05:37:39;101065.44;;;17.97;49.01
23307;BME280;11822;52.470;10.688;2022-07-29T05:40:05;101056.84;;;18.02;49.21
23307;BME280;11822;52.470;10.688;2022-07-29T05:42:30;101053.72;;;18.04;49.07
23307;BME280;11822;52.470;10.688;2022-07-29T05:44:56;101057.69;;;18.06;49.00
23307;BME280;11822;52.470;10.688;2022-07-29T05:47:22;101058.53;;;18.10;49.02
23307;BME280;11822;52.470;10.688;2022-07-29T05:49:48;101055.03;;;18.13;49.08
23307;BME280;11822;52.470;10.688;2022-07-29T05:52:13;101055.06;;;18.17;49.10
23307;BME280;11822;52.470;10.688;2022-07-29T05:54:39;101059.09;;;18.23;48.96
23307;BME280;11822;52.470;10.688;2022-07-29T05:57:05;101051.59;;;18.24;49.15
23307;BME280;11822;52.470;10.688;2022-07-29T05:59:31;101055.56;;;18.26;49.00
23307;BME280;11822;52.470;10.688;2022-07-29T06:02:00;101055.66;;;18.34;48.95
23307;BME280;11822;52.470;10.688;2022-07-29T06:04:25;101057.75;;;18.40;49.26
23307;BME280;11822;52.470;10.688;2022-07-29T06:06:50;101062.53;;;18.43;49.10
23307;BME280;11822;52.470;10.688;2022-07-29T06:09:16;101061.78;;;18.46;48.98
23307;BME280;11822;52.470;10.688;2022-07-29T06:11:41;101061.34;;;18.44;48.87
23307;BME280;11822;52.470;10.688;2022-07-29T06:14:06;101063.78;;;18.50;49.04
23307;BME280;11822;52.470;10.688;2022-07-29T06:16:32;101056.34;;;18.57;49.14
23307;BME280;11822;52.470;10.688;2022-07-29T06:18:57;101067.84;;;18.59;48.76
23307;BME280;11822;52.470;10.688;2022-07-29T06:21:22;101061.13;;;18.60;48.98
23307;BME280;11822;52.470;10.688;2022-07-29T06:23:48;101054.84;;;18.64;48.82
23307;BME280;11822;52.470;10.688;2022-07-29T06:26:13;101066.78;;;18.71;48.73
23307;BME280;11822;52.470;10.688;2022-07-29T06:28:38;101059.78;;;18.81;49.07
23307;BME280;11822;52.470;10.688;2022-07-29T06:31:05;101061.09;;;18.95;48.69
23307;BME280;11822;52.470;10.688;2022-07-29T06:33:30;101050.19;;;19.09;48.44
23307;BME280;11822;52.470;10.688;2022-07-29T06:35:56;101065.31;;;19.23;48.23
23307;BME280;11822;52.470;10.688;2022-07-29T06:38:21;101062.69;;;19.37;48.16
23307;BME280;11822;52.470;10.688;2022-07-29T06:40:47;101057.25;;;19.52;47.44
23307;BME280;11822;52.470;10.688;2022-07-29T06:43:35;101057.78;;;19.72;47.54
23307;BME280;11822;52.470;10.688;2022-07-29T06:46:05;101061.50;;;19.90;47.07
23307;BME280;11822;52.470;10.688;2022-07-29T06:48:32;101056.06;;;20.05;46.80
23307;BME280;11822;52.470;10.688;2022-07-29T06:50:58;101061.28;;;20.17;47.04
23307;BME280;11822;52.470;10.688;2022-07-29T06:53:23;101048.22;;;20.25;46.36
23307;BME280;11822;52.470;10.688;2022-07-29T06:55:49;101053.78;;;20.36;45.79
23307;BME280;11822;52.470;10.688;2022-07-29T06:58:15;101054.63;;;20.44;45.96
23307;BME280;11822;52.470;10.688;2022-07-29T07:00:43;101047.53;;;20.50;45.52
23307;BME280;11822;52.470;10.688;2022-07-29T07:03:09;101040.41;;;20.60;45.29
23307;BME280;11822;52.470;10.688;2022-07-29T07:05:35;101039.25;;;20.64;44.85
23307;BME280;11822;52.470;10.688;2022-07-29T07:08:00;101036.09;;;20.70;44.92
23307;BME280;11822;52.470;10.688;2022-07-29T07:10:25;101046.38;;;20.69;44.86
23307;BME280;11822;52.470;10.688;2022-07-29T07:12:51;101034.13;;;20.74;44.61
23307;BME280;11822;52.470;10.688;2022-07-29T07:15:16;101040.03;;;20.76;44.97
23307;BME280;11822;52.470;10.688;2022-07-29T07:17:41;101041.28;;;20.82;44.71
23307;BME280;11822;52.470;10.688;2022-07-29T07:20:07;101035.34;;;20.94;44.63
23307;BME280;11822;52.470;10.688;2022-07-29T07:22:33;101029.03;;;21.01;44.10
23307;BME280;11822;52.470;10.688;2022-07-29T07:24:58;101033.38;;;21.13;43.50
23307;BME280;11822;52.470;10.688;2022-07-29T07:27:23;101027.06;;;21.20;43.50
23307;BME280;11822;52.470;10.688;2022-07-29T07:29:49;101027.81;;;21.24;43.25
23307;BME280;11822;52.470;10.688;2022-07-29T07:32:14;101026.63;;;21.25;43.01
23307;BME280;11822;52.470;10.688;2022-07-29T07:34:42;101028.63;;;21.24;43.46
23307;BME280;11822;52.470;10.688;2022-07-29T07:37:07;101018.69;;;21.23;43.41
23307;BME280;11822;52.470;10.688;2022-07-29T07:39:33;101023.06;;;21.24;43.24
23307;BME280;11822;52.470;10.688;2022-07-29T07:41:59;101029.41;;;21.25;43.48
23307;BME280;11822;52.470;10.688;2022-07-29T07:44:24;101040.94;;;21.23;43.37
23307;BME280;11822;52.470;10.688;2022-07-29T07:46:49;101043.69;;;21.27;43.72
23307;BME280;11822;52.470;10.688;2022-07-29T07:49:15;101046.47;;;21.27;43.75
23307;BME280;11822;52.470;10.688;2022-07-29T07:51:40;101038.16;;;21.31;43.52
23307;BME280;11822;52.470;10.688;2022-07-29T07:54:05;101042.50;;;21.32;43.30
23307;BME280;11822;52.470;10.688;2022-07-29T07:56:31;101044.09;;;21.25;43.95
23307;BME280;11822;52.470;10.688;2022-07-29T07:58:56;101039.34;;;21.22;43.40
23307;BME280;11822;52.470;10.688;2022-07-29T08:01:21;101044.50;;;21.20;43.76
23307;BME280;11822;52.470;10.688;2022-07-29T08:03:49;101032.22;;;21.18;44.38
23307;BME280;11822;52.470;10.688;2022-07-29T08:06:14;101038.53;;;21.22;44.16
23307;BME280;11822;52.470;10.688;2022-07-29T08:08:40;101049.25;;;21.31;43.94
23307;BME280;11822;52.470;10.688;2022-07-29T08:11:05;101040.53;;;21.43;43.76
23307;BME280;11822;52.470;10.688;2022-07-29T08:13:31;101039.72;;;21.50;43.87
23307;BME280;11822;52.470;10.688;2022-07-29T08:15:58;101028.59;;;21.57;43.43
23307;BME280;11822;52.470;10.688;2022-07-29T08:18:29;101032.97;;;21.47;43.19
23307;BME280;11822;52.470;10.688;2022-07-29T08:20:55;101027.81;;;21.42;43.11
23307;BME280;11822;52.470;10.688;2022-07-29T08:23:21;101030.97;;;21.48;43.42
23307;BME280;11822;52.470;10.688;2022-07-29T08:25:48;101025.44;;;21.59;43.44
23307;BME280;11822;52.470;10.688;2022-07-29T08:28:14;101023.03;;;21.75;43.01
23307;BME280;11822;52.470;10.688;2022-07-29T08:30:39;101027.38;;;21.87;42.42
23307;BME280;11822;52.470;10.688;2022-07-29T08:33:05;101032.09;;;22.01;42.43
23307;BME280;11822;52.470;10.688;2022-07-29T08:35:30;101031.66;;;22.13;42.51
23307;BME280;11822;52.470;10.688;2022-07-29T08:37:56;101032.78;;;22.23;41.68
23307;BME280;11822;52.470;10.688;2022-07-29T08:40:22;101040.31;;;22.34;42.21
23307;BME280;11822;52.470;10.688;2022-07-29T08:42:49;101035.50;;;22.49;41.98
23307;BME280;11822;52.470;10.688;2022-07-29T08:45:15;101039.81;;;22.61;41.61
23307;BME280;11822;52.470;10.688;2022-07-29T08:47:40;101033.38;;;22.71;41.41
23307;BME280;11822;52.470;10.688;2022-07-29T08:50:10;101033.34;;;22.78;41.59
23307;BME280;11822;52.470;10.688;2022-07-29T08:52:37;101025.31;;;22.87;41.14
23307;BME280;11822;52.470;10.688;2022-07-29T08:55:05;101037.53;;;23.01;40.94
23307;BME280;11822;52.470;10.688;2022-07-29T08:57:32;101031.47;;;23.17;40.72
23307;BME280;11822;52.470;10.688;2022-07-29T09:00:00;101027.78;;;23.31;40.12
23307;BME280;11822;52.470;10.688;2022-07-29T09:02:28;101028.81;;;23.48;39.93
23307;BME280;11822;52.470;10.688;2022-07-29T09:04:54;101022.69;;;23.64;40.17
23307;BME280;11822;52.470;10.688;2022-07-29T09:07:21;101023.84;;;23.70;39.24
23307;BME280;11822;52.470;10.688;2022-07-29T09:09:47;101023.38;;;23.75;39.33
23307;BME280;11822;52.470;10.688;2022-07-29T09:12:12;101024.84;;;23.87;39.08
23307;BME280;11822;52.470;10.688;2022-07-29T09:14:38;101019.19;;;23.95;39.28
23307;BME280;11822;52.470;10.688;2022-07-29T09:17:04;101008.72;;;24.06;38.91
23307;BME280;11822;52.470;10.688;2022-07-29T09:19:32;101010.97;;;24.15;38.94
23307;BME280;11822;52.470;10.688;2022-07-29T09:22:01;101018.72;;;24.34;38.91
23307;BME280;11822;52.470;10.688;2022-07-29T09:26:59;101002.06;;;24.55;37.88
23307;BME280;11822;52.470;10.688;2022-07-29T09:29:25;101007.44;;;24.69;37.49
23307;BME280;11822;52.470;10.688;2022-07-29T09:31:53;101007.75;;;24.78;37.34
23307;BME280;11822;52.470;10.688;2022-07-29T09:36:49;100999.88;;;24.97;36.77
23307;BME280;11822;52.470;10.688;2022-07-29T09:39:26;101002.19;;;25.02;36.15
23307;BME280;11822;52.470;10.688;2022-07-29T09:41:54;100995.75;;;25.05;36.44
23307;BME280;11822;52.470;10.688;2022-07-29T09:44:21;101007.16;;;25.15;36.04
23307;BME280;11822;52.470;10.688;2022-07-29T09:47:03;100991.78;;;25.27;36.29
23307;BME280;11822;52.470;10.688;2022-07-29T09:49:32;100992.06;;;25.32;36.17
23307;BME280;11822;52.470;10.688;2022-07-29T09:52:09;100995.53;;;25.40;36.05
23307;BME280;11822;52.470;10.688;2022-07-29T09:54:36;101000.53;;;25.52;35.86
23307;BME280;11822;52.470;10.688;2022-07-29T09:57:06;100996.66;;;25.66;35.77
23307;BME280;11822;52.470;10.688;2022-07-29T09:59:33;100995.44;;;25.67;35.56
23307;BME280;11822;52.470;10.688;2022-07-29T10:01:59;100996.09;;;25.75;35.43
23307;BME280;11822;52.470;10.688;2022-07-29T10:04:42;100999.06;;;25.88;35.47
23307;BME280;11822;52.470;10.688;2022-07-29T10:07:08;100996.09;;;25.95;35.61
23307;BME280;11822;52.470;10.688;2022-07-29T10:09:34;100996.03;;;25.99;35.06
23307;BME280;11822;52.470;10.688;2022-07-29T10:12:06;100990.19;;;26.10;35.55
23307;BME280;11822;52.470;10.688;2022-07-29T10:14:33;100991.63;;;26.18;35.70
23307;BME280;11822;52.470;10.688;2022-07-29T10:16:59;100987.03;;;26.28;35.31
23307;BME280;11822;52.470;10.688;2022-07-29T10:19:30;100985.81;;;26.29;35.15
23307;BME280;11822;52.470;10.688;2022-07-29T10:21:58;100984.78;;;26.39;35.03
23307;BME280;11822;52.470;10.688;2022-07-29T10:24:26;100983.06;;;26.46;34.63
23307;BME280;11822;52.470;10.688;2022-07-29T10:26:53;100977.34;;;26.49;35.11
23307;BME280;11822;52.470;10.688;2022-07-29T10:29:19;100979.72;;;26.51;34.55
23307;BME280;11822;52.470;10.688;2022-07-29T10:42:52;100970.53;;;27.17;33.75
23307;BME280;11822;52.470;10.688;2022-07-29T10:45:18;100970.00;;;27.22;33.98
23307;BME280;11822;52.470;10.688;2022-07-29T10:47:44;100969.13;;;27.25;33.35
23307;BME280;11822;52.470;10.688;2022-07-29T10:50:10;100959.97;;;27.37;33.06
23307;BME280;11822;52.470;10.688;2022-07-29T10:58:17;100962.09;;;27.50;33.96
23307;BME280;11822;52.470;10.688;2022-07-29T11:00:44;100971.78;;;27.45;32.98
23307;BME280;11822;52.470;10.688;2022-07-29T11:03:45;100957.41;;;27.43;32.42
23307;BME280;11822;52.470;10.688;2022-07-29T11:06:12;100959.22;;;27.37;32.83
23307;BME280;11822;52.470;10.688;2022-07-29T11:08:38;100957.38;;;27.30;32.29
23307;BME280;11822;52.470;10.688;2022-07-29T11:11:39;100954.22;;;27.28;32.88
23307;BME280;11822;52.470;10.688;2022-07-29T11:14:06;100946.19;;;27.13;33.09
23307;BME280;11822;52.470;10.688;2022-07-29T11:17:08;100946.38;;;27.06;32.98
23307;BME280;11822;52.470;10.688;2022-07-29T11:19:34;100943.06;;;26.95;32.91
23307;BME280;11822;52.470;10.688;2022-07-29T11:21:59;100945.19;;;26.91;33.74
23307;BME280;11822;52.470;10.688;2022-07-29T11:24:27;100939.47;;;26.94;33.71
23307;BME280;11822;52.470;10.688;2022-07-29T11:27:20;100942.34;;;27.07;33.27
23307;BME280;11822;52.470;10.688;2022-07-29T11:29:55;100930.50;;;27.16;32.14
23307;BME280;11822;52.470;10.688;2022-07-29T11:32:23;100928.97;;;27.28;31.41
23307;BME280;11822;52.470;10.688;2022-07-29T11:35:10;100918.59;;;27.41;31.12
23307;BME280;11822;52.470;10.688;2022-07-29T11:37:34;100916.09;;;27.60;30.19
23307;BME280;11822;52.470;10.688;2022-07-29T11:47:57;100918.34;;;28.21;28.44
23307;BME280;11822;52.470;10.688;2022-07-29T11:50:34;100909.13;;;28.20;27.96
23307;BME280;11822;52.470;10.688;2022-07-29T11:53:00;100913.16;;;28.19;27.53
23307;BME280;11822;52.470;10.688;2022-07-29T11:55:26;100912.94;;;28.26;26.92
23307;BME280;11822;52.470;10.688;2022-07-29T11:57:57;100910.56;;;28.38;26.29
23307;BME280;11822;52.470;10.688;2022-07-29T12:00:47;100917.19;;;28.44;26.49
23307;BME280;11822;52.470;10.688;2022-07-29T12:03:23;100915.16;;;28.57;26.40
23307;BME280;11822;52.470;10.688;2022-07-29T12:05:49;100918.75;;;28.58;25.63
23307;BME280;11822;52.470;10.688;2022-07-29T12:08:18;100917.84;;;28.61;25.97
23307;BME280;11822;52.470;10.688;2022-07-29T12:10:46;100920.22;;;28.63;26.31
23307;BME280;11822;52.470;10.688;2022-07-29T12:13:12;100915.78;;;28.74;26.18
23307;BME280;11822;52.470;10.688;2022-07-29T12:15:39;100915.59;;;28.82;26.27
23307;BME280;11822;52.470;10.688;2022-07-29T12:18:13;100911.88;;;28.85;26.66
23307;BME280;11822;52.470;10.688;2022-07-29T12:20:38;100904.88;;;28.89;26.73
23307;BME280;11822;52.470;10.688;2022-07-29T12:23:08;100907.00;;;28.85;26.65
23307;BME280;11822;52.470;10.688;2022-07-29T12:25:34;100900.28;;;28.83;26.60
23307;BME280;11822;52.470;10.688;2022-07-29T12:28:02;100901.84;;;28.84;26.61
23307;BME280;11822;52.470;10.688;2022-07-29T12:30:54;100907.81;;;28.73;26.69
23307;BME280;11822;52.470;10.688;2022-07-29T12:33:27;100901.22;;;28.67;26.46
23307;BME280;11822;52.470;10.688;2022-07-29T12:35:58;100904.59;;;28.61;26.49
23307;BME280;11822;52.470;10.688;2022-07-29T12:38:25;100905.38;;;28.62;26.38
23307;BME280;11822;52.470;10.688;2022-07-29T12:40:52;100900.22;;;28.60;26.69
23307;BME280;11822;52.470;10.688;2022-07-29T12:43:22;100905.38;;;28.62;26.67
23307;BME280;11822;52.470;10.688;2022-07-29T12:45:52;100905.69;;;28.64;26.32
23307;BME280;11822;52.470;10.688;2022-07-29T12:51:01;100895.16;;;28.55;26.14
23307;BME280;11822;52.470;10.688;2022-07-29T12:53:28;100895.50;;;28.57;26.41
23307;BME280;11822;52.470;10.688;2022-07-29T12:55:55;100884.00;;;28.65;26.29
23307;BME280;11822;52.470;10.688;2022-07-29T13:01:24;100884.84;;;28.87;26.45
23307;BME280;11822;52.470;10.688;2022-07-29T13:03:54;100888.91;;;28.86;25.96
23307;BME280;11822;52.470;10.688;2022-07-29T13:06:41;100884.59;;;28.95;26.15
23307;BME280;11822;52.470;10.688;2022-07-29T13:09:11;100882.59;;;28.95;26.14
23307;BME280;11822;52.470;10.688;2022-07-29T13:11:43;100885.81;;;29.07;26.22
23307;BME280;11822;52.470;10.688;2022-07-29T13:14:14;100892.88;;;29.11;25.98
23307;BME280;11822;52.470;10.688;2022-07-29T13:19:34;100884.50;;;29.20;26.26
23307;BME280;11822;52.470;10.688;2022-07-29T13:22:00;100882.34;;;29.25;26.02
23307;BME280;11822;52.470;10.688;2022-07-29T13:24:26;100886.16;;;29.31;25.40
23307;BME280;11822;52.470;10.688;2022-07-29T13:26:51;100878.03;;;29.33;25.29
23307;BME280;11822;52.470;10.688;2022-07-29T13:29:17;100873.97;;;29.34;25.22
23307;BME280;11822;52.470;10.688;2022-07-29T13:31:42;100875.06;;;29.37;25.64
23307;BME280;11822;52.470;10.688;2022-07-29T13:34:08;100878.25;;;29.39;25.52
23307;BME280;11822;52.470;10.688;2022-07-29T13:36:33;100881.63;;;29.33;26.01
23307;BME280;11822;52.470;10.688;2022-07-29T13:38:58;100875.66;;;29.31;26.20
23307;BME280;11822;52.470;10.688;2022-07-29T13:41:26;100867.75;;;29.17;26.05
23307;BME280;11822;52.470;10.688;2022-07-29T13:43:51;100872.84;;;29.09;26.30
23307;BME280;11822;52.470;10.688;2022-07-29T13:46:16;100868.72;;;29.01;26.41
23307;BME280;11822;52.470;10.688;2022-07-29T13:48:42;100871.69;;;28.97;26.08
23307;BME280;11822;52.470;10.688;2022-07-29T13:51:07;100867.75;;;28.95;26.30